createdAt,value
2017-12-31T00:02:03.826Z,99.9
2017-12-31T00:07:04.019Z,99.9
2017-12-31T00:12:03.895Z,99.9
2017-12-31T00:17:03.452Z,99.9
2017-12-31T00:22:03.142Z,99.9
2017-12-31T00:27:03.737Z,99.9
2017-12-31T00:32:03.276Z,99.9
2017-12-31T00:37:03.565Z,99.9
2017-12-31T00:42:03.255Z,99.9
2017-12-31T00:47:03.767Z,99.9
2017-12-31T00:52:03.804Z,99.9
2017-12-31T00:57:03.579Z,99.9
2017-12-31T01:02:03.470Z,99.9
2017-12-31T01:07:03.499Z,99.9
2017-12-31T01:12:03.351Z,99.9
2017-12-31T01:17:03.868Z,99.9
2017-12-31T01:22:03.986Z,99.9
2017-12-31T01:27:03.547Z,99.9
2017-12-31T01:32:03.305Z,99.9
2017-12-31T01:37:03.974Z,99.9
2017-12-31T01:42:03.596Z,99.9
2017-12-31T01:47:03.688Z,99.9
2017-12-31T01:52:03.433Z,99.9
2017-12-31T01:57:03.294Z,99.9
2017-12-31T02:02:03.888Z,99.9
2017-12-31T02:07:03.754Z,99.9
2017-12-31T02:12:03.515Z,99.9
2017-12-31T02:17:03.524Z,99.9
2017-12-31T02:22:03.100Z,99.9
2017-12-31T02:27:03.735Z,99.9
2017-12-31T02:32:03.469Z,99.9
2017-12-31T02:37:03.940Z,99.9
2017-12-31T02:42:03.059Z,99.9
2017-12-31T02:47:03.229Z,99.9
2017-12-31T02:52:03.089Z,99.9
2017-12-31T02:57:03.717Z,99.9
2017-12-31T03:02:03.479Z,99.9
2017-12-31T03:07:03.546Z,99.9
2017-12-31T03:12:03.402Z,99.9
2017-12-31T03:17:03.560Z,99.9
2017-12-31T03:22:03.973Z,99.9
2017-12-31T03:27:03.764Z,99.9
2017-12-31T03:32:03.251Z,99.9
2017-12-31T03:37:03.499Z,99.9
2017-12-31T03:42:03.520Z,99.9
2017-12-31T03:47:03.636Z,99.9
2017-12-31T03:52:03.752Z,99.9
2017-12-31T03:57:03.902Z,99.9
2017-12-31T04:02:03.120Z,99.9
2017-12-31T04:07:03.791Z,99.9
2017-12-31T04:12:03.445Z,99.9
2017-12-31T04:17:03.651Z,99.9
2017-12-31T04:22:03.694Z,99.8
2017-12-31T04:27:03.644Z,99.8
2017-12-31T04:32:03.100Z,99.9
2017-12-31T04:37:03.590Z,99.9
2017-12-31T04:42:03.530Z,99.7
2017-12-31T04:47:03.601Z,99.9
2017-12-31T04:52:03.658Z,99.9
2017-12-31T04:57:03.643Z,99.9
2017-12-31T05:02:03.780Z,99.9
2017-12-31T05:07:03.389Z,99.9
2017-12-31T05:12:03.610Z,99.9
2017-12-31T05:17:03.424Z,99.9
2017-12-31T05:22:03.500Z,99.9
2017-12-31T05:27:04.001Z,99.9
2017-12-31T05:32:03.199Z,99.9
2017-12-31T05:37:03.330Z,99.9
2017-12-31T05:42:03.697Z,99.9
2017-12-31T05:47:05.587Z,99.9
2017-12-31T05:52:03.441Z,99.9
2017-12-31T05:57:03.942Z,99.9
2017-12-31T06:02:03.548Z,99.9
2017-12-31T06:07:03.493Z,99.9
2017-12-31T06:12:03.609Z,99.9
2017-12-31T06:17:03.618Z,99.9
2017-12-31T06:22:03.798Z,99.9
2017-12-31T06:27:03.936Z,99.9
2017-12-31T06:32:03.384Z,99.9
2017-12-31T06:37:03.583Z,99.9
2017-12-31T06:42:03.071Z,99.9
2017-12-31T06:47:10.675Z,99.9
2017-12-31T06:52:02.991Z,99.9
2017-12-31T06:57:03.127Z,99.8
2017-12-31T07:02:23.366Z,99.7
2017-12-31T07:07:03.520Z,99.8
2017-12-31T07:12:03.425Z,99.8
2017-12-31T07:17:28.731Z,99.8
2017-12-31T07:22:03.184Z,99.8
2017-12-31T07:27:03.413Z,99.9
2017-12-31T07:32:24.117Z,99.7
2017-12-31T07:37:03.514Z,99.7
2017-12-31T07:42:03.465Z,99.9
2017-12-31T07:47:29.234Z,99.8
2017-12-31T07:52:03.514Z,99.8
2017-12-31T07:57:03.450Z,99.9
2017-12-31T08:02:23.291Z,99.3
2017-12-31T08:07:03.422Z,99.2
2017-12-31T08:12:03.954Z,99.1
2017-12-31T08:17:22.566Z,98.6
2017-12-31T08:22:03.830Z,98.6
2017-12-31T08:27:03.670Z,98.4
2017-12-31T08:32:26.716Z,98.5
2017-12-31T08:37:03.414Z,98.4
2017-12-31T08:42:03.249Z,98.4
2017-12-31T08:47:27.532Z,98.1
2017-12-31T08:52:03.198Z,98.0
2017-12-31T08:57:03.458Z,98.8
2017-12-31T09:02:21.929Z,99.0
2017-12-31T09:07:03.442Z,98.9
2017-12-31T09:12:03.667Z,98.9
2017-12-31T09:17:28.772Z,98.5
2017-12-31T09:22:03.988Z,98.3
2017-12-31T09:27:03.755Z,98.3
2017-12-31T09:32:24.093Z,98.4
2017-12-31T09:37:03.738Z,98.2
2017-12-31T09:42:03.635Z,97.9
2017-12-31T09:47:24.150Z,97.9
2017-12-31T09:52:03.466Z,98.0
2017-12-31T09:57:03.359Z,98.0
2017-12-31T10:02:23.954Z,97.6
2017-12-31T10:07:03.516Z,97.3
2017-12-31T10:12:03.543Z,97.3
2017-12-31T10:17:27.364Z,97.0
2017-12-31T10:22:03.549Z,96.8
2017-12-31T10:27:03.462Z,96.8
2017-12-31T10:32:22.195Z,96.8
2017-12-31T10:37:03.724Z,96.6
2017-12-31T10:42:03.672Z,96.6
2017-12-31T10:47:21.745Z,96.9
2017-12-31T10:52:03.078Z,96.4
2017-12-31T10:57:03.089Z,96.2
2017-12-31T11:02:28.072Z,96.3
2017-12-31T11:07:03.999Z,96.2
2017-12-31T11:12:03.107Z,96.2
2017-12-31T11:17:28.637Z,96.3
2017-12-31T11:22:03.418Z,95.8
2017-12-31T11:27:03.883Z,95.8
2017-12-31T11:32:26.936Z,95.4
2017-12-31T11:37:03.845Z,95.4
2017-12-31T11:42:03.833Z,95.7
2017-12-31T11:47:28.049Z,95.8
2017-12-31T11:52:03.259Z,95.2
2017-12-31T11:57:03.230Z,95.2
2017-12-31T12:02:29.967Z,94.7
2017-12-31T12:07:03.644Z,95.1
2017-12-31T12:12:03.952Z,94.9
2017-12-31T12:17:22.457Z,94.6
2017-12-31T12:22:03.871Z,94.3
2017-12-31T12:27:03.814Z,94.9
2017-12-31T12:32:28.326Z,95.1
2017-12-31T12:37:03.720Z,95.1
2017-12-31T12:42:03.620Z,94.8
2017-12-31T12:47:24.517Z,93.8
2017-12-31T12:52:03.039Z,93.7
2017-12-31T12:57:03.845Z,93.4
2017-12-31T13:02:28.835Z,93.6
2017-12-31T13:07:03.082Z,93.6
2017-12-31T13:12:03.474Z,93.8
2017-12-31T13:17:24.408Z,93.8
2017-12-31T13:22:03.774Z,93.4
2017-12-31T13:27:03.868Z,93.2
2017-12-31T13:32:24.032Z,93.0
2017-12-31T13:37:03.852Z,92.6
2017-12-31T13:42:03.772Z,93.0
2017-12-31T13:47:29.002Z,92.4
2017-12-31T13:52:03.553Z,91.8
2017-12-31T13:57:03.859Z,91.4
2017-12-31T14:02:27.638Z,90.7
2017-12-31T14:07:03.217Z,90.5
2017-12-31T14:12:03.324Z,90.4
2017-12-31T14:17:29.062Z,89.3
2017-12-31T14:22:03.355Z,89.3
2017-12-31T14:27:03.235Z,87.3
2017-12-31T14:32:27.988Z,87.9
2017-12-31T14:37:03.688Z,86.5
2017-12-31T14:42:03.515Z,86.7
2017-12-31T14:47:27.083Z,90.4
2017-12-31T14:52:03.762Z,92.1
2017-12-31T14:57:03.609Z,92.5
2017-12-31T15:02:21.582Z,91.9
2017-12-31T15:07:03.729Z,92.8
2017-12-31T15:12:03.825Z,93.3
2017-12-31T15:17:28.850Z,93.3
2017-12-31T15:22:03.425Z,94.4
2017-12-31T15:27:03.399Z,93.8
2017-12-31T15:32:25.640Z,94.6
2017-12-31T15:37:03.967Z,94.8
2017-12-31T15:42:03.864Z,95.0
2017-12-31T15:47:29.020Z,95.0
2017-12-31T15:52:03.147Z,95.2
2017-12-31T15:57:03.440Z,95.0
2017-12-31T16:02:28.061Z,95.0
2017-12-31T16:07:03.471Z,94.9
2017-12-31T16:12:03.838Z,94.9
2017-12-31T16:17:15.445Z,94.9
2017-12-31T16:22:03.588Z,95.1
2017-12-31T16:27:03.757Z,95.1
2017-12-31T16:32:11.524Z,94.9
2017-12-31T16:37:03.338Z,94.7
2017-12-31T16:42:03.718Z,94.4
2017-12-31T16:47:03.451Z,94.4
2017-12-31T16:52:03.705Z,94.4
2017-12-31T16:57:02.995Z,94.4
2017-12-31T17:02:03.418Z,93.7
2017-12-31T17:07:03.799Z,94.3
2017-12-31T17:12:03.400Z,94.3
2017-12-31T17:17:04.182Z,94.4
2017-12-31T17:22:03.247Z,93.9
2017-12-31T17:27:03.868Z,93.7
2017-12-31T17:32:07.858Z,93.4
2017-12-31T17:37:03.625Z,93.2
2017-12-31T17:42:03.959Z,93.5
2017-12-31T17:47:03.657Z,93.5
2017-12-31T17:52:03.644Z,93.2
2017-12-31T17:57:03.882Z,93.4
2017-12-31T18:02:03.653Z,93.6
2017-12-31T18:07:03.991Z,93.5
2017-12-31T18:12:03.397Z,93.5
2017-12-31T18:17:03.426Z,92.8
2017-12-31T18:22:03.541Z,93.0
2017-12-31T18:27:03.371Z,92.9
2017-12-31T18:32:03.854Z,93.0
2017-12-31T18:37:03.853Z,92.7
2017-12-31T18:42:03.182Z,92.1
2017-12-31T18:47:03.652Z,92.1
2017-12-31T18:52:03.934Z,92.2
2017-12-31T18:57:03.227Z,92.2
2017-12-31T19:02:03.634Z,92.0
2017-12-31T19:07:03.941Z,91.8
2017-12-31T19:12:03.550Z,91.5
2017-12-31T19:17:03.759Z,91.5
2017-12-31T19:22:03.894Z,91.3
2017-12-31T19:27:04.020Z,91.3
2017-12-31T19:32:03.401Z,91.3
2017-12-31T19:37:03.509Z,91.1
2017-12-31T19:42:03.710Z,90.8
2017-12-31T19:47:03.942Z,90.7
2017-12-31T19:52:03.097Z,90.6
2017-12-31T19:57:03.746Z,90.6
2017-12-31T20:02:04.080Z,90.5
2017-12-31T20:07:03.401Z,90.4
2017-12-31T20:12:03.639Z,90.3
2017-12-31T20:17:03.945Z,90.4
2017-12-31T20:22:03.317Z,90.5
2017-12-31T20:27:03.527Z,90.4
2017-12-31T20:32:04.090Z,90.6
2017-12-31T20:37:04.007Z,90.7
2017-12-31T20:42:03.125Z,90.6
2017-12-31T20:47:03.456Z,90.5
2017-12-31T20:52:03.494Z,90.4
2017-12-31T20:57:03.758Z,90.6
2017-12-31T21:02:03.324Z,90.7
2017-12-31T21:07:03.315Z,90.6
2017-12-31T21:12:03.581Z,90.5
2017-12-31T21:17:03.351Z,90.5
2017-12-31T21:22:03.479Z,90.5
2017-12-31T21:27:03.591Z,90.5
2017-12-31T21:32:03.253Z,90.5
2017-12-31T21:37:03.461Z,90.4
2017-12-31T21:42:03.589Z,90.2
2017-12-31T21:47:03.241Z,90.2
2017-12-31T21:52:03.465Z,90.2
2017-12-31T21:57:03.513Z,90.3
2017-12-31T22:02:03.686Z,90.3
2017-12-31T22:07:03.442Z,90.2
2017-12-31T22:12:03.645Z,90.3
2017-12-31T22:17:03.329Z,90.2
2017-12-31T22:22:03.884Z,90.5
2017-12-31T22:27:03.265Z,90.3
2017-12-31T22:32:04.030Z,89.9
2017-12-31T22:37:03.272Z,89.4
2017-12-31T22:42:03.513Z,89.3
2017-12-31T22:47:03.679Z,89.3
2017-12-31T22:52:03.835Z,89.5
2017-12-31T22:57:03.021Z,89.4
2017-12-31T23:02:03.507Z,89.5
2017-12-31T23:07:03.869Z,89.5
2017-12-31T23:12:03.221Z,89.5
2017-12-31T23:22:03.960Z,89.2
2017-12-31T23:27:03.702Z,89.6
2017-12-31T23:32:03.974Z,89.7
2017-12-31T23:37:03.895Z,89.7
2017-12-31T23:42:03.050Z,89.7
2017-12-31T23:47:03.540Z,89.6
2017-12-31T23:52:03.349Z,89.9
2017-12-31T23:57:03.547Z,90.7
